createdAt,value
2023-04-16T06:32:35.443Z,31.08
2023-04-16T06:35:02.013Z,25.33
2023-04-16T06:37:28.543Z,26.42
2023-04-16T06:39:55.313Z,28.63
2023-04-16T06:42:21.935Z,27.03
2023-04-16T06:44:48.454Z,26.40
2023-04-16T06:47:15.177Z,32.92
2023-04-16T06:49:41.957Z,31.10
2023-04-16T06:52:08.726Z,31.33
2023-04-16T06:54:35.377Z,28.83
2023-04-16T06:57:01.938Z,31.33
2023-04-16T06:59:28.686Z,30.30
2023-04-16T07:01:55.974Z,26.42
2023-04-16T07:04:23.895Z,30.40
2023-04-16T07:06:51.784Z,28.93
2023-04-16T07:09:18.386Z,33.45
2023-04-16T07:11:45.477Z,28.10
2023-04-16T07:14:12.138Z,24.17
2023-04-16T07:16:38.765Z,28.25
2023-04-16T07:19:05.305Z,23.93
2023-04-16T07:21:31.927Z,22.95
2023-04-16T07:23:58.445Z,24.52
2023-04-16T07:26:24.994Z,26.60
2023-04-16T07:28:51.705Z,23.95
2023-04-16T07:31:18.922Z,24.50
2023-04-16T07:33:45.605Z,23.88
2023-04-16T07:36:12.410Z,20.77
2023-04-16T07:38:38.962Z,22.83
2023-04-16T07:41:05.752Z,22.50
2023-04-16T07:43:32.820Z,22.70
2023-04-16T07:45:59.631Z,25.23
2023-04-16T07:48:26.455Z,25.58
2023-04-16T07:50:53.073Z,24.70
2023-04-16T07:53:19.740Z,26.98
2023-04-16T07:55:46.382Z,22.50
2023-04-16T07:58:12.944Z,21.80
2023-04-16T08:00:40.088Z,21.67
2023-04-16T08:03:07.131Z,22.13
2023-04-16T08:05:33.748Z,25.25
2023-04-16T08:08:00.347Z,22.93
2023-04-16T08:10:27.572Z,26.13
2023-04-16T08:12:54.366Z,24.23
2023-04-16T08:15:21.152Z,22.70
2023-04-16T08:17:47.971Z,24.70
2023-04-16T08:20:17.616Z,23.73
2023-04-16T08:22:47.274Z,22.65
2023-04-16T08:25:14.441Z,21.90
2023-04-16T08:27:41.559Z,25.20
2023-04-16T08:30:08.475Z,27.17
2023-04-16T08:32:35.096Z,25.73
2023-04-16T08:35:01.686Z,28.83
2023-04-16T08:37:28.314Z,20.83
2023-04-16T08:39:54.824Z,21.92
2023-04-16T08:42:32.608Z,25.67
2023-04-16T08:45:16.855Z,24.27
2023-04-16T08:47:49.047Z,25.10
2023-04-16T08:50:17.782Z,26.05
2023-04-16T08:52:52.292Z,25.05
2023-04-16T08:55:23.724Z,26.50
2023-04-16T08:57:59.570Z,25.97
2023-04-16T09:00:26.900Z,24.17
2023-04-16T09:02:54.252Z,23.27
2023-04-16T09:05:25.597Z,23.60
2023-04-16T09:07:54.491Z,21.55
2023-04-16T09:10:21.865Z,23.83
2023-04-16T09:12:49.246Z,21.42
2023-04-16T09:15:15.837Z,24.70
2023-04-16T09:17:42.426Z,27.75
2023-04-16T09:20:10.993Z,22.60
2023-04-16T09:22:38.488Z,25.17
2023-04-16T09:25:05.526Z,29.77
2023-04-16T09:27:32.313Z,22.77
2023-04-16T09:29:59.095Z,24.20
2023-04-16T09:32:27.699Z,19.88
2023-04-16T09:34:55.638Z,20.67
2023-04-16T09:37:22.177Z,19.05
2023-04-16T09:40:02.919Z,22.90
2023-04-16T09:42:39.681Z,24.67
2023-04-16T09:45:06.871Z,25.02
2023-04-16T09:47:44.536Z,29.67
2023-04-16T09:50:18.259Z,24.27
2023-04-16T09:52:48.755Z,22.10
2023-04-16T09:55:15.474Z,23.77
2023-04-16T09:57:42.117Z,24.70
2023-04-16T10:00:10.373Z,21.60
2023-04-16T10:02:41.806Z,24.88
2023-04-16T10:05:09.167Z,23.73
2023-04-16T10:07:37.672Z,22.70
2023-04-16T10:10:05.423Z,21.50
2023-04-16T10:12:32.841Z,21.97
2023-04-16T10:14:59.605Z,25.75
2023-04-16T10:17:27.364Z,22.30
2023-04-16T10:19:54.735Z,21.20
2023-04-16T10:22:21.418Z,22.63
2023-04-16T10:24:50.260Z,22.17
2023-04-16T10:27:17.233Z,22.15
2023-04-16T10:29:45.208Z,24.70
2023-04-16T10:32:12.396Z,23.75
2023-04-16T10:34:39.193Z,28.92
2023-04-16T10:37:05.812Z,21.80
2023-04-16T10:39:37.408Z,19.23
2023-04-16T10:42:11.874Z,22.90
2023-04-16T10:44:41.910Z,21.02
2023-04-16T10:47:14.575Z,19.85
2023-04-16T10:49:42.711Z,18.93
2023-04-16T10:52:19.530Z,25.35
2023-04-16T10:54:49.260Z,18.70
2023-04-16T10:57:17.888Z,22.95
2023-04-16T10:59:45.341Z,20.42
2023-04-16T11:02:17.921Z,22.20
2023-04-16T11:04:46.599Z,21.83
2023-04-16T11:07:19.234Z,18.75
2023-04-16T11:09:53.595Z,22.75
2023-04-16T11:12:33.090Z,20.45
2023-04-16T11:15:02.300Z,23.23
2023-04-16T11:17:51.774Z,21.75
2023-04-16T11:20:20.747Z,22.40
2023-04-16T11:22:52.045Z,24.85
2023-04-16T11:25:26.895Z,20.95
2023-04-16T11:27:53.899Z,21.60
2023-04-16T11:30:33.819Z,21.48
2023-04-16T11:33:10.306Z,17.98
2023-04-16T11:35:39.247Z,20.23
2023-04-16T11:38:07.131Z,22.52
2023-04-16T11:40:34.434Z,23.57
2023-04-16T11:43:27.074Z,25.85
2023-04-16T11:46:10.220Z,22.20
2023-04-16T11:48:51.009Z,26.85
2023-04-16T11:51:18.301Z,25.77
2023-04-16T11:53:48.697Z,30.50
2023-04-16T11:56:15.889Z,28.90
2023-04-16T11:58:43.394Z,24.38
2023-04-16T12:01:10.229Z,24.08
2023-04-16T12:03:44.351Z,20.85
2023-04-16T12:06:11.443Z,22.03
2023-04-16T12:08:38.188Z,26.33
2023-04-16T12:11:04.965Z,27.83
2023-04-16T12:13:31.589Z,23.38
2023-04-16T12:15:58.093Z,24.40
2023-04-16T12:18:29.227Z,26.27
2023-04-16T12:20:55.975Z,26.83
2023-04-16T12:23:33.893Z,26.60
2023-04-16T12:26:10.797Z,23.60
2023-04-16T12:28:38.685Z,26.80
2023-04-16T12:31:06.464Z,27.60
2023-04-16T12:33:33.136Z,26.48
2023-04-16T12:36:00.278Z,23.13
2023-04-16T12:38:27.782Z,23.55
2023-04-16T12:40:56.940Z,22.83
2023-04-16T12:43:24.141Z,24.13
2023-04-16T12:45:50.807Z,21.48
2023-04-16T12:48:17.369Z,23.77
2023-04-16T12:50:45.742Z,24.67
2023-04-16T12:53:12.378Z,22.90
2023-04-16T12:55:39.024Z,24.97
2023-04-16T12:58:05.764Z,21.80
2023-04-16T13:00:32.818Z,24.65
2023-04-16T13:02:59.422Z,20.90
2023-04-16T13:05:26.691Z,23.35
2023-04-16T13:07:54.091Z,26.50
2023-04-16T13:10:21.949Z,24.85
2023-04-16T13:12:49.020Z,22.98
2023-04-16T13:15:15.803Z,20.95
2023-04-16T13:17:42.362Z,22.17
2023-04-16T13:20:09.565Z,23.83
2023-04-16T13:22:36.218Z,24.00
2023-04-16T13:25:02.884Z,22.23
2023-04-16T13:27:31.212Z,24.92
2023-04-16T13:29:57.805Z,21.65
2023-04-16T13:32:24.485Z,22.57
2023-04-16T13:34:51.105Z,23.38
2023-04-16T13:37:17.699Z,20.25
2023-04-16T13:39:45.181Z,19.30
2023-04-16T13:42:11.785Z,18.05
2023-04-16T13:44:38.309Z,19.53
2023-04-16T13:47:05.011Z,20.23
2023-04-16T13:49:35.489Z,20.35
2023-04-16T13:52:02.465Z,21.40
2023-04-16T13:54:29.026Z,19.05
2023-04-16T13:56:56.189Z,17.67
2023-04-16T13:59:22.804Z,19.67
2023-04-16T14:01:51.795Z,24.63
2023-04-16T14:04:19.295Z,22.58
2023-04-16T14:06:46.001Z,22.85
2023-04-16T14:09:12.906Z,20.50
2023-04-16T14:11:39.731Z,24.85
2023-04-16T14:14:06.530Z,23.33
2023-04-16T14:16:34.101Z,23.05
2023-04-16T14:19:01.184Z,21.77
2023-04-16T14:21:27.853Z,23.73
2023-04-16T14:23:54.386Z,21.92
2023-04-16T14:26:21.146Z,22.73
2023-04-16T14:28:47.878Z,21.92
2023-04-16T14:31:14.624Z,22.23
2023-04-16T14:33:42.259Z,20.93
2023-04-16T14:36:08.979Z,24.02
2023-04-16T14:38:35.916Z,18.55
2023-04-16T14:41:02.634Z,22.83
2023-04-16T14:43:29.303Z,20.08
2023-04-16T14:45:57.126Z,18.43
2023-04-16T14:48:23.848Z,21.52
2023-04-16T14:50:50.658Z,21.70
2023-04-16T14:53:17.790Z,23.13
2023-04-16T14:55:44.525Z,25.38
2023-04-16T14:58:11.033Z,22.63
2023-04-16T15:00:37.665Z,24.75
2023-04-16T15:03:05.339Z,25.85
2023-04-16T15:05:32.091Z,27.50
2023-04-16T15:07:58.688Z,29.45
2023-04-16T15:10:25.318Z,26.13
2023-04-16T15:12:52.051Z,26.98
2023-04-16T15:15:18.834Z,25.00
2023-04-16T15:17:45.753Z,27.55
2023-04-16T15:20:12.930Z,27.55
2023-04-16T15:22:40.623Z,26.63
2023-04-16T15:25:07.843Z,25.17
2023-04-16T15:27:34.746Z,27.40
2023-04-16T15:30:01.348Z,27.35
2023-04-16T15:32:28.040Z,27.23
2023-04-16T15:34:54.602Z,28.53
2023-04-16T15:37:21.164Z,26.60
2023-04-16T15:39:48.194Z,26.75
2023-04-16T15:42:14.757Z,25.90
2023-04-16T15:44:41.336Z,25.33
2023-04-16T15:47:08.729Z,26.73
2023-04-16T15:49:36.055Z,29.17
2023-04-16T15:52:03.102Z,30.27
2023-04-16T15:54:30.743Z,25.40
2023-04-16T15:56:58.751Z,25.65
2023-04-16T15:59:28.448Z,27.37
2023-04-16T16:01:55.106Z,26.70
2023-04-16T16:04:22.981Z,29.75
2023-04-16T16:06:50.504Z,32.70
2023-04-16T16:09:17.295Z,37.38
2023-04-16T16:11:43.989Z,35.50
2023-04-16T16:14:10.986Z,31.58
2023-04-16T16:16:37.935Z,35.65
2023-04-16T16:19:04.740Z,30.08
2023-04-16T16:21:32.560Z,38.05
2023-04-16T16:23:59.149Z,37.20
2023-04-16T16:26:25.706Z,33.05
2023-04-16T16:28:52.264Z,29.42
2023-04-16T16:31:19.031Z,30.27
2023-04-16T16:33:45.721Z,27.88
2023-04-16T16:36:12.488Z,29.50
2023-04-16T16:38:42.631Z,30.08
2023-04-16T16:41:09.473Z,32.92
2023-04-16T16:43:38.948Z,26.98
2023-04-16T16:46:07.430Z,31.08
2023-04-16T16:48:34.289Z,27.83
2023-04-16T16:51:01.256Z,31.15
2023-04-16T16:53:28.184Z,31.05
2023-04-16T16:55:54.719Z,28.92
2023-04-16T16:58:21.283Z,29.15
2023-04-16T17:00:47.874Z,29.23
2023-04-16T17:03:14.656Z,26.75
2023-04-16T17:05:41.628Z,31.38
2023-04-16T17:08:08.155Z,33.15
2023-04-16T17:10:35.538Z,32.05
2023-04-16T17:13:02.350Z,34.93
2023-04-16T17:15:28.992Z,33.03
2023-04-16T17:17:55.887Z,32.50
2023-04-16T17:20:22.536Z,30.23
2023-04-16T17:22:49.202Z,37.83
2023-04-16T17:25:15.999Z,34.83
2023-04-16T17:27:42.640Z,37.67
2023-04-16T17:30:09.656Z,30.20
2023-04-16T17:32:36.526Z,32.55
2023-04-16T17:35:05.181Z,35.05
2023-04-16T17:37:31.923Z,32.10
2023-04-16T17:39:58.489Z,35.20
2023-04-16T17:42:25.057Z,36.45
2023-04-16T17:44:51.916Z,36.45
2023-04-16T17:47:18.446Z,33.63
2023-04-16T17:49:45.023Z,33.97
2023-04-16T17:52:11.596Z,36.90
2023-04-16T17:54:38.148Z,33.95
2023-04-16T17:57:04.699Z,34.80
2023-04-16T17:59:31.201Z,35.20
2023-04-16T18:01:57.955Z,36.37
2023-04-16T18:04:24.768Z,32.40
2023-04-16T18:06:51.441Z,36.78
2023-04-16T18:09:19.327Z,33.13
2023-04-16T18:11:46.042Z,38.33
2023-04-16T18:14:16.675Z,37.03
2023-04-16T18:16:43.309Z,31.92
2023-04-16T18:19:09.942Z,33.85
2023-04-16T18:21:36.650Z,37.83
2023-04-16T18:24:03.540Z,34.83
2023-04-16T18:26:30.353Z,37.53
2023-04-16T18:28:57.139Z,36.15
2023-04-16T18:31:23.771Z,33.42
2023-04-16T18:33:57.518Z,39.33
2023-04-16T18:36:27.152Z,33.83
2023-04-16T18:41:23.982Z,31.27
2023-04-16T18:43:50.621Z,37.00
2023-04-16T18:46:17.334Z,36.00
2023-04-16T18:48:45.209Z,31.15
2023-04-16T18:51:13.299Z,36.43
2023-04-16T18:53:44.315Z,34.58
2023-04-16T18:56:11.681Z,32.58
2023-04-16T18:58:38.422Z,39.03
2023-04-16T19:01:07.829Z,34.83
2023-04-16T19:03:34.787Z,36.47
2023-04-16T19:06:01.648Z,30.95
2023-04-16T19:08:28.282Z,33.30
2023-04-16T19:10:54.922Z,34.55
2023-04-16T19:13:22.148Z,36.13
2023-04-16T19:15:48.730Z,33.00
2023-04-16T19:18:15.566Z,32.13
2023-04-16T19:20:42.238Z,37.10
2023-04-16T19:23:09.239Z,39.00
2023-04-16T19:25:39.116Z,38.90
2023-04-16T19:28:05.854Z,39.30
2023-04-16T19:30:32.521Z,37.03
2023-04-16T19:33:00.202Z,40.20
2023-04-16T19:35:27.174Z,41.38
2023-04-16T19:37:56.667Z,40.15
2023-04-16T19:40:23.290Z,46.37
2023-04-16T19:42:49.946Z,43.25
2023-04-16T19:45:17.668Z,44.75
2023-04-16T19:47:44.880Z,41.75
2023-04-16T19:50:11.732Z,42.88
2023-04-16T19:52:39.123Z,43.03
2023-04-16T19:55:07.119Z,43.35
2023-04-16T19:57:33.838Z,44.92
2023-04-16T20:00:00.590Z,43.72
2023-04-16T20:02:27.293Z,46.08
2023-04-16T20:04:54.070Z,44.70
2023-04-16T20:07:20.642Z,46.85
2023-04-16T20:09:47.246Z,48.00
2023-04-16T20:12:14.421Z,50.58
2023-04-16T20:14:41.945Z,46.17
2023-04-16T20:17:10.071Z,47.97
2023-04-16T20:19:39.985Z,47.15
2023-04-16T20:22:06.848Z,52.47
2023-04-16T20:24:34.328Z,46.88
2023-04-16T20:27:01.810Z,43.30
2023-04-16T20:29:28.377Z,42.33
2023-04-16T20:31:54.992Z,46.80
2023-04-16T20:34:21.572Z,42.83
2023-04-16T20:36:48.242Z,43.50
2023-04-16T20:39:20.185Z,49.13
2023-04-16T20:41:56.482Z,45.20
2023-04-16T20:44:26.421Z,45.72
2023-04-16T20:46:54.817Z,48.25
2023-04-16T20:49:21.637Z,46.25
2023-04-16T20:51:48.260Z,47.20
2023-04-16T20:54:14.841Z,51.30
2023-04-16T20:56:41.610Z,46.38
2023-04-16T20:59:08.441Z,47.30
2023-04-16T21:01:35.554Z,47.47
2023-04-16T21:04:02.556Z,42.15
2023-04-16T21:06:32.872Z,48.97
2023-04-16T21:08:59.450Z,45.88
2023-04-16T21:11:26.298Z,43.25
2023-04-16T21:13:52.841Z,45.42
2023-04-16T21:16:19.742Z,39.88
2023-04-16T21:18:46.484Z,45.53
2023-04-16T21:21:12.961Z,41.85
2023-04-16T21:23:39.464Z,42.15
2023-04-16T21:26:06.236Z,42.30
2023-04-16T21:28:32.943Z,44.50
2023-04-16T21:31:00.253Z,48.73
2023-04-16T21:33:26.817Z,46.78
2023-04-16T21:35:53.782Z,43.40
2023-04-16T21:38:21.482Z,45.10
2023-04-16T21:40:50.777Z,42.35
2023-04-16T21:43:17.893Z,44.90
2023-04-16T21:45:44.462Z,42.53
2023-04-16T21:48:11.286Z,43.60
2023-04-16T21:50:38.087Z,45.92
2023-04-16T21:53:06.402Z,42.08
2023-04-16T21:55:34.749Z,45.70
2023-04-16T21:58:01.932Z,44.53
